Time;durP1;ratioP1;P1;durP2;ratioP2;P2;SDS_P1;SDS_P2;PMS_P1;PMS_P2;Temp;Humidity;BMP_temperature;BMP_pressure;BME280_temperature;BME280_humidity;BME280_pressure;Samples;Min_cycle;Max_cycle;Signal;HPM_P1;HPM_P2
2022/03/02 00:00:20;;;;;;;9.43;8.40;;;;;;;;;;5009831;28;20575;-80
2022/03/02 00:02:45;;;;;;;10.45;8.98;;;;;;;;;;4993131;28;20052;-80
2022/03/02 00:05:11;;;;;;;10.75;8.25;;;;;;;;;;4993440;28;20409;-80
2022/03/02 00:07:36;;;;;;;11.75;8.90;;;;;;;;;;4977585;28;20351;-80
2022/03/02 00:10:03;;;;;;;9.77;8.25;;;;;;;;;;4977385;28;20049;-80
2022/03/02 00:12:30;;;;;;;9.52;8.25;;;;;;;;;;4976039;28;20054;-80
2022/03/02 00:14:55;;;;;;;10.75;8.98;;;;;;;;;;4972911;28;20062;-80
2022/03/02 00:17:21;;;;;;;10.38;8.65;;;;;;;;;;4957613;28;20086;-80
2022/03/02 00:19:46;;;;;;;10.23;8.63;;;;;;;;;;4976181;28;20035;-80
2022/03/02 00:22:12;;;;;;;9.65;7.85;;;;;;;;;;4959968;28;20409;-80
2022/03/02 00:24:37;;;;;;;10.68;8.48;;;;;;;;;;4997921;28;20447;-80
2022/03/02 00:27:03;;;;;;;9.18;8.18;;;;;;;;;;4973699;28;20194;-80
2022/03/02 00:29:28;;;;;;;10.40;7.90;;;;;;;;;;4973930;28;20413;-80
2022/03/02 00:31:54;;;;;;;12.38;8.05;;;;;;;;;;4990097;28;20126;-80
2022/03/02 00:34:19;;;;;;;11.70;8.55;;;;;;;;;;4973829;28;20469;-80
2022/03/02 00:36:45;;;;;;;10.88;8.02;;;;;;;;;;4956393;28;20034;-80
2022/03/02 00:39:10;;;;;;;11.82;8.35;;;;;;;;;;4993139;28;20173;-81
2022/03/02 00:41:36;;;;;;;10.55;8.05;;;;;;;;;;4977102;28;20073;-80
2022/03/02 00:44:02;;;;;;;9.40;8.35;;;;;;;;;;4976153;28;20089;-80
2022/03/02 00:46:29;;;;;;;10.25;8.40;;;;;;;;;;4960811;28;20038;-80
2022/03/02 00:48:57;;;;;;;8.27;7.28;;;;;;;;;;4971857;28;20440;-80
2022/03/02 00:51:23;;;;;;;9.57;8.23;;;;;;;;;;4957508;28;20035;-80
2022/03/02 00:53:50;;;;;;;9.98;8.05;;;;;;;;;;4956095;28;20118;-80
2022/03/02 00:56:15;;;;;;;8.82;7.13;;;;;;;;;;4959473;28;20081;-80
2022/03/02 00:58:41;;;;;;;9.45;7.93;;;;;;;;;;4992754;28;20069;-80
2022/03/02 01:01:06;;;;;;;8.88;7.85;;;;;;;;;;4992802;28;20408;-80
2022/03/02 01:03:32;;;;;;;8.73;7.82;;;;;;;;;;4976310;28;20108;-80
2022/03/02 01:05:57;;;;;;;10.98;7.45;;;;;;;;;;4968097;28;20059;-80
2022/03/02 01:08:22;;;;;;;9.80;7.78;;;;;;;;;;4957029;28;20035;-81
2022/03/02 01:10:48;;;;;;;10.32;8.02;;;;;;;;;;4972998;28;20045;-80
2022/03/02 01:13:14;;;;;;;8.18;7.38;;;;;;;;;;4981135;28;20418;-80
2022/03/02 01:15:39;;;;;;;10.90;8.20;;;;;;;;;;4992383;28;20054;-80
2022/03/02 01:18:05;;;;;;;10.30;7.80;;;;;;;;;;4992046;28;20489;-80
2022/03/02 01:20:30;;;;;;;9.57;7.63;;;;;;;;;;4992750;28;20409;-80
2022/03/02 01:22:55;;;;;;;8.60;7.70;;;;;;;;;;4975640;28;20035;-80
2022/03/02 01:25:21;;;;;;;8.52;7.05;;;;;;;;;;4941011;28;20105;-80
2022/03/02 01:27:46;;;;;;;8.85;7.90;;;;;;;;;;4972615;28;20039;-80
2022/03/02 01:30:12;;;;;;;9.13;7.22;;;;;;;;;;4956568;28;20445;-80
2022/03/02 01:32:37;;;;;;;10.20;7.97;;;;;;;;;;4976012;28;20034;-81
2022/03/02 01:35:03;;;;;;;7.88;7.07;;;;;;;;;;4972973;28;20705;-80
2022/03/02 01:37:29;;;;;;;9.25;7.95;;;;;;;;;;4984801;28;20034;-81
2022/03/02 01:39:54;;;;;;;9.40;7.00;;;;;;;;;;4991724;28;20078;-80
2022/03/02 01:42:19;;;;;;;10.15;7.38;;;;;;;;;;4991600;28;20069;-80
2022/03/02 01:44:45;;;;;;;7.68;6.78;;;;;;;;;;4975053;28;20034;-80
2022/03/02 01:47:10;;;;;;;10.00;7.85;;;;;;;;;;4991660;28;20047;-80
2022/03/02 01:49:36;;;;;;;8.48;7.35;;;;;;;;;;4991789;28;20481;-80
2022/03/02 01:52:01;;;;;;;8.93;7.18;;;;;;;;;;4991749;28;20030;-80
2022/03/02 01:54:27;;;;;;;13.15;7.38;;;;;;;;;;4939847;28;20126;-80
2022/03/02 01:56:52;;;;;;;8.10;6.97;;;;;;;;;;4978468;28;20042;-80
2022/03/02 01:59:18;;;;;;;9.13;7.55;;;;;;;;;;4975469;28;20038;-80
2022/03/02 02:01:43;;;;;;;8.02;7.22;;;;;;;;;;4963447;28;20065;-80
2022/03/02 02:04:09;;;;;;;9.55;7.25;;;;;;;;;;4955678;28;20057;-80
2022/03/02 02:06:34;;;;;;;8.07;7.07;;;;;;;;;;4963734;28;20069;-80
2022/03/02 02:09:00;;;;;;;9.88;8.02;;;;;;;;;;4975440;28;20044;-80
2022/03/02 02:11:25;;;;;;;8.57;7.18;;;;;;;;;;4974777;28;20054;-80
2022/03/02 02:13:51;;;;;;;9.82;6.90;;;;;;;;;;4971327;28;20046;-80
2022/03/02 02:16:19;;;;;;;9.18;7.03;;;;;;;;;;4971597;28;20043;-80
2022/03/02 02:18:44;;;;;;;9.23;7.45;;;;;;;;;;4971922;28;20040;-80
2022/03/02 02:21:10;;;;;;;8.07;6.57;;;;;;;;;;4971888;28;20042;-80
2022/03/02 02:23:36;;;;;;;9.85;7.18;;;;;;;;;;4972025;28;20039;-80
2022/03/02 02:26:02;;;;;;;9.15;7.07;;;;;;;;;;4938925;28;20034;-81
2022/03/02 02:28:28;;;;;;;10.52;7.75;;;;;;;;;;4984182;28;20113;-80
2022/03/02 02:30:54;;;;;;;8.85;6.80;;;;;;;;;;4973929;28;20501;-80
2022/03/02 02:33:20;;;;;;;8.95;7.38;;;;;;;;;;4954681;28;20045;-80
2022/03/02 02:35:46;;;;;;;9.70;7.80;;;;;;;;;;4967604;28;20035;-81
2022/03/02 02:38:11;;;;;;;8.35;6.90;;;;;;;;;;4954978;28;20027;-80
2022/03/02 02:40:37;;;;;;;10.60;7.88;;;;;;;;;;4939132;28;20061;-80
2022/03/02 02:43:02;;;;;;;8.30;6.88;;;;;;;;;;4964497;28;20042;-81
2022/03/02 02:45:28;;;;;;;8.75;7.13;;;;;;;;;;4978158;28;20039;-80
2022/03/02 02:47:55;;;;;;;8.90;7.03;;;;;;;;;;4980414;28;20050;-80
2022/03/02 02:50:28;;;;;;;8.75;7.07;;;;;;;;;;4974925;28;20038;-81
2022/03/02 02:52:54;;;;;;;9.15;7.13;;;;;;;;;;4955601;28;20097;-80
2022/03/02 02:55:20;;;;;;;7.75;6.95;;;;;;;;;;4939667;28;20034;-80
2022/03/02 02:57:46;;;;;;;9.20;7.68;;;;;;;;;;4952486;28;20117;-81
2022/03/02 03:00:14;;;;;;;8.90;7.18;;;;;;;;;;4970052;28;20038;-81
2022/03/02 03:02:40;;;;;;;10.30;6.70;;;;;;;;;;4955721;28;20058;-81
2022/03/02 03:05:10;;;;;;;7.60;6.82;;;;;;;;;;4955566;28;20035;-80
2022/03/02 03:07:35;;;;;;;8.95;7.40;;;;;;;;;;4955129;28;20045;-81
2022/03/02 03:10:01;;;;;;;8.00;7.20;;;;;;;;;;4923500;28;20039;-80
2022/03/02 03:12:26;;;;;;;9.80;7.65;;;;;;;;;;4938900;28;20038;-80
2022/03/02 03:14:52;;;;;;;7.88;7.07;;;;;;;;;;4954782;28;20441;-80
2022/03/02 03:17:17;;;;;;;8.05;7.00;;;;;;;;;;4971156;28;20440;-81
2022/03/02 03:19:42;;;;;;;8.43;6.78;;;;;;;;;;4971155;28;20042;-80
2022/03/02 03:22:08;;;;;;;8.77;6.75;;;;;;;;;;4939258;28;20429;-80
2022/03/02 03:24:34;;;;;;;8.93;6.85;;;;;;;;;;4955236;28;20038;-80
2022/03/02 03:27:00;;;;;;;8.63;7.40;;;;;;;;;;4970733;28;20129;-80
2022/03/02 03:29:25;;;;;;;7.72;6.72;;;;;;;;;;4940615;28;20417;-80
2022/03/02 03:31:50;;;;;;;8.18;7.32;;;;;;;;;;4985077;28;20069;-80
2022/03/02 03:34:16;;;;;;;9.38;7.63;;;;;;;;;;4988690;28;20378;-80
2022/03/02 03:36:42;;;;;;;7.47;6.45;;;;;;;;;;4990721;28;20034;-80
2022/03/02 03:39:08;;;;;;;8.43;7.20;;;;;;;;;;4974213;28;20035;-80
2022/03/02 03:41:34;;;;;;;7.70;6.80;;;;;;;;;;4957726;28;20428;-80
2022/03/02 03:43:59;;;;;;;9.05;6.60;;;;;;;;;;4973420;28;20030;-81
2022/03/02 03:46:25;;;;;;;8.80;7.13;;;;;;;;;;4974147;28;20054;-81
2022/03/02 03:48:50;;;;;;;7.28;6.28;;;;;;;;;;4954698;28;20042;-80
2022/03/02 03:51:16;;;;;;;8.30;6.68;;;;;;;;;;4954724;28;20061;-80
2022/03/02 03:53:41;;;;;;;8.73;7.13;;;;;;;;;;4968548;28;20114;-80
2022/03/02 03:56:06;;;;;;;7.40;6.60;;;;;;;;;;4974589;28;20425;-80
2022/03/02 03:58:32;;;;;;;9.45;6.95;;;;;;;;;;4993688;28;20061;-80
2022/03/02 04:00:58;;;;;;;7.85;6.70;;;;;;;;;;4977965;28;20035;-80
2022/03/02 04:03:24;;;;;;;7.68;6.50;;;;;;;;;;4992649;28;20038;-80
2022/03/02 04:05:49;;;;;;;8.38;6.50;;;;;;;;;;4961558;28;20038;-80
2022/03/02 04:08:15;;;;;;;7.55;6.70;;;;;;;;;;4993620;28;20041;-80
2022/03/02 04:10:40;;;;;;;8.50;6.75;;;;;;;;;;4993416;28;20050;-80
2022/03/02 04:13:06;;;;;;;9.07;6.75;;;;;;;;;;4976970;28;20034;-80
2022/03/02 04:15:31;;;;;;;7.47;6.50;;;;;;;;;;4993249;28;20054;-79
2022/03/02 04:17:57;;;;;;;7.40;6.05;;;;;;;;;;4966689;28;20026;-80
2022/03/02 04:20:23;;;;;;;8.15;7.00;;;;;;;;;;4957759;28;20039;-80
2022/03/02 04:22:48;;;;;;;8.27;6.40;;;;;;;;;;4942012;28;20081;-80
2022/03/02 04:25:13;;;;;;;7.20;6.40;;;;;;;;;;4957562;28;20039;-80
2022/03/02 04:27:40;;;;;;;8.88;6.50;;;;;;;;;;4973620;28;20034;-81
2022/03/02 04:30:06;;;;;;;6.97;6.22;;;;;;;;;;4958197;28;20085;-81
2022/03/02 04:32:32;;;;;;;6.90;6.20;;;;;;;;;;4965395;28;20100;-80
2022/03/02 04:34:57;;;;;;;9.05;6.60;;;;;;;;;;4973910;28;20039;-80
2022/03/02 04:37:23;;;;;;;7.25;6.13;;;;;;;;;;4974183;28;20034;-81
2022/03/02 04:39:48;;;;;;;8.93;6.32;;;;;;;;;;4989910;28;20039;-80
2022/03/02 04:42:14;;;;;;;6.75;5.75;;;;;;;;;;4989543;28;20050;-80
2022/03/02 04:44:39;;;;;;;7.68;6.20;;;;;;;;;;4973130;28;20042;-80
2022/03/02 04:47:05;;;;;;;7.35;6.15;;;;;;;;;;4991526;28;20039;-80
2022/03/02 04:49:30;;;;;;;6.47;5.75;;;;;;;;;;4972347;28;20050;-80
2022/03/02 04:51:56;;;;;;;6.85;5.95;;;;;;;;;;4973539;28;20035;-80
2022/03/02 04:57:05;;;;;;;7.15;6.40;;;;;;;;;;4981099;28;20552;-80
2022/03/02 04:59:31;;;;;;;7.40;6.25;;;;;;;;;;4993168;28;20045;-80
2022/03/02 05:01:56;;;;;;;7.90;6.82;;;;;;;;;;4988684;28;20035;-80
2022/03/02 05:04:22;;;;;;;7.55;6.10;;;;;;;;;;4976466;28;20046;-80
2022/03/02 05:06:47;;;;;;;8.65;6.30;;;;;;;;;;4992338;28;20053;-80
2022/03/02 05:09:13;;;;;;;7.05;5.70;;;;;;;;;;4992083;28;20057;-80
2022/03/02 05:11:38;;;;;;;7.10;6.40;;;;;;;;;;4991561;28;20042;-80
2022/03/02 05:14:04;;;;;;;8.18;6.80;;;;;;;;;;4975744;28;20441;-80
2022/03/02 05:16:30;;;;;;;7.53;6.20;;;;;;;;;;4988313;28;20125;-80
2022/03/02 05:18:55;;;;;;;6.57;5.90;;;;;;;;;;4940874;28;20193;-80
2022/03/02 05:21:21;;;;;;;6.30;5.32;;;;;;;;;;4956755;28;20031;-80
2022/03/02 05:23:46;;;;;;;6.85;5.75;;;;;;;;;;4988788;28;20475;-80
2022/03/02 05:26:12;;;;;;;7.50;6.03;;;;;;;;;;4986360;28;20104;-80
2022/03/02 05:28:37;;;;;;;6.80;6.10;;;;;;;;;;4976304;28;20057;-80
2022/03/02 05:31:03;;;;;;;8.20;6.03;;;;;;;;;;4992458;28;20085;-80
2022/03/02 05:33:28;;;;;;;6.95;6.15;;;;;;;;;;4992409;28;20421;-80
2022/03/02 05:35:55;;;;;;;7.82;5.95;;;;;;;;;;4964722;28;20437;-80
2022/03/02 05:38:20;;;;;;;7.90;5.82;;;;;;;;;;4972481;28;20038;-79
2022/03/02 05:40:45;;;;;;;9.15;6.35;;;;;;;;;;4940287;28;20061;-80
2022/03/02 05:43:11;;;;;;;6.57;5.88;;;;;;;;;;4978501;28;20042;-80
2022/03/02 05:45:36;;;;;;;7.30;5.75;;;;;;;;;;4976157;28;20046;-79
2022/03/02 05:48:02;;;;;;;6.60;5.95;;;;;;;;;;4959652;28;20030;-79
2022/03/02 05:50:28;;;;;;;8.73;6.18;;;;;;;;;;4958585;28;20070;-79
2022/03/02 05:52:53;;;;;;;6.82;6.07;;;;;;;;;;4975304;28;20047;-79
2022/03/02 05:55:19;;;;;;;7.20;5.97;;;;;;;;;;4991949;28;20041;-80
2022/03/02 05:57:44;;;;;;;7.60;6.13;;;;;;;;;;4991633;28;20038;-79
2022/03/02 06:00:10;;;;;;;7.40;6.15;;;;;;;;;;4991838;28;20116;-79
2022/03/02 06:02:36;;;;;;;8.48;5.80;;;;;;;;;;4975737;28;20046;-79
2022/03/02 06:05:01;;;;;;;7.90;5.63;;;;;;;;;;4974798;28;20049;-79
2022/03/02 06:07:27;;;;;;;10.75;6.43;;;;;;;;;;4975269;28;20409;-79
2022/03/02 06:09:52;;;;;;;8.60;6.03;;;;;;;;;;4972623;28;20043;-79
2022/03/02 06:12:18;;;;;;;8.65;6.10;;;;;;;;;;4955745;28;20065;-79
2022/03/02 06:14:44;;;;;;;6.88;5.65;;;;;;;;;;4955352;28;20041;-79
2022/03/02 06:17:10;;;;;;;6.60;5.32;;;;;;;;;;4940077;28;20039;-79
2022/03/02 06:19:36;;;;;;;6.80;5.45;;;;;;;;;;4955536;28;20039;-79
2022/03/02 06:22:02;;;;;;;8.18;6.25;;;;;;;;;;4939310;28;20379;-78
2022/03/02 06:24:29;;;;;;;8.50;6.30;;;;;;;;;;4970433;28;20070;-79
2022/03/02 06:26:54;;;;;;;9.77;6.43;;;;;;;;;;4971641;28;20121;-78
2022/03/02 06:29:20;;;;;;;8.95;5.90;;;;;;;;;;4974246;28;20030;-78
2022/03/02 06:31:46;;;;;;;12.23;6.07;;;;;;;;;;4991172;28;20042;-78
2022/03/02 06:34:11;;;;;;;10.10;5.97;;;;;;;;;;4990919;28;20066;-78
2022/03/02 06:36:36;;;;;;;10.75;6.10;;;;;;;;;;4957459;28;20092;-78
2022/03/02 06:39:02;;;;;;;12.55;5.50;;;;;;;;;;4971345;28;20031;-80
2022/03/02 06:41:41;;;;;;;8.18;6.15;;;;;;;;;;4987741;28;20180;-79
2022/03/02 06:44:20;;;;;;;9.90;5.38;;;;;;;;;;4975948;28;20034;-79
2022/03/02 06:47:03;;;;;;;8.25;5.57;;;;;;;;;;4975036;28;20137;-79
2022/03/02 06:49:34;;;;;;;;;;;;;;;;;;4988267;28;20038;-79
2022/03/02 06:52:00;;;;;;;10.40;6.25;;;;;;;;;;4958635;28;19916;-79
2022/03/02 06:54:30;;;;;;;9.70;5.28;;;;;;;;;;4971296;28;20126;-80
2022/03/02 06:56:58;;;;;;;9.48;6.43;;;;;;;;;;4946442;28;20034;-79
2022/03/02 06:59:40;;;;;;;11.00;6.15;;;;;;;;;;4990096;28;20041;-80
2022/03/02 07:02:06;;;;;;;9.88;6.68;;;;;;;;;;4991046;28;20034;-79
2022/03/02 07:04:39;;;;;;;9.30;7.07;;;;;;;;;;4974354;28;20050;-80
2022/03/02 07:07:04;;;;;;;6.95;6.18;;;;;;;;;;4958798;28;20046;-80
2022/03/02 07:09:31;;;;;;;10.70;6.47;;;;;;;;;;4975048;28;20034;-80
2022/03/02 07:11:59;;;;;;;10.48;5.35;;;;;;;;;;4974502;28;20497;-80
2022/03/02 07:14:24;;;;;;;8.35;5.40;;;;;;;;;;4987845;28;21985;-79
2022/03/02 07:16:50;;;;;;;11.00;6.20;;;;;;;;;;4972058;28;20042;-79
2022/03/02 07:19:15;;;;;;;8.90;5.93;;;;;;;;;;4990329;28;20425;-79
2022/03/02 07:21:42;;;;;;;8.10;6.10;;;;;;;;;;4990791;28;20485;-79
2022/03/02 07:24:17;;;;;;;7.93;6.30;;;;;;;;;;4975110;28;20038;-79
2022/03/02 07:26:50;;;;;;;8.50;5.85;;;;;;;;;;4974155;28;20057;-79
2022/03/02 07:29:15;;;;;;;;;;;;;;;;;;4975189;28;20560;-81
2022/03/02 07:31:41;;;;;;;8.52;5.70;;;;;;;;;;5001068;28;20008;-81
2022/03/02 07:34:07;;;;;;;8.13;6.13;;;;;;;;;;4977060;28;20174;-81
2022/03/02 07:36:32;;;;;;;11.80;7.00;;;;;;;;;;4977888;28;20134;-82
2022/03/02 07:38:58;;;;;;;16.52;7.18;;;;;;;;;;4978131;28;20049;-82
2022/03/02 07:41:25;;;;;;;26.98;8.40;;;;;;;;;;4961636;28;20034;-82
2022/03/02 07:43:50;;;;;;;20.23;7.57;;;;;;;;;;4961701;28;20053;-82
2022/03/02 07:46:16;;;;;;;15.80;7.50;;;;;;;;;;4994051;28;20121;-82
2022/03/02 07:48:41;;;;;;;19.88;7.93;;;;;;;;;;4979733;28;20421;-82
2022/03/02 07:51:07;;;;;;;14.85;7.55;;;;;;;;;;4974325;28;20421;-82
2022/03/02 07:53:51;;;;;;;15.00;7.60;;;;;;;;;;4958306;28;20406;-83
2022/03/02 07:56:17;;;;;;;16.95;7.38;;;;;;;;;;4976389;28;20042;-82
2022/03/02 07:58:43;;;;;;;10.30;6.70;;;;;;;;;;4977783;28;20049;-82
2022/03/02 08:01:15;;;;;;;20.17;7.85;;;;;;;;;;4973330;28;20505;-82
2022/03/02 08:03:42;;;;;;;12.05;6.53;;;;;;;;;;4973883;28;20477;-82
2022/03/02 08:06:07;;;;;;;12.88;6.05;;;;;;;;;;4974652;28;20038;-82
2022/03/02 08:08:36;;;;;;;14.82;6.57;;;;;;;;;;4958049;28;20184;-82
2022/03/02 08:11:02;;;;;;;14.40;6.38;;;;;;;;;;4990319;28;20046;-83
2022/03/02 08:13:29;;;;;;;15.50;6.50;;;;;;;;;;4957496;28;20039;-81
2022/03/02 08:15:55;;;;;;;13.98;6.55;;;;;;;;;;4960475;28;20071;-82
2022/03/02 08:18:20;;;;;;;16.17;6.22;;;;;;;;;;4978810;28;20194;-81
2022/03/02 08:20:50;;;;;;;11.95;6.32;;;;;;;;;;4943446;28;20073;-81
2022/03/02 08:23:19;;;;;;;13.45;6.57;;;;;;;;;;4982649;28;20118;-81
2022/03/02 08:25:46;;;;;;;12.60;6.70;;;;;;;;;;4976963;28;20099;-81
2022/03/02 08:28:13;;;;;;;10.98;6.03;;;;;;;;;;4996984;28;20108;-80
2022/03/02 08:30:39;;;;;;;10.50;5.80;;;;;;;;;;4972053;28;20035;-80
2022/03/02 08:33:04;;;;;;;11.25;6.15;;;;;;;;;;4964841;28;20034;-80
2022/03/02 08:35:35;;;;;;;9.48;5.60;;;;;;;;;;4961651;28;20501;-81
2022/03/02 08:38:01;;;;;;;8.85;6.05;;;;;;;;;;4997063;28;20414;-80
2022/03/02 08:40:26;;;;;;;9.30;5.50;;;;;;;;;;4959854;28;20046;-80
2022/03/02 08:42:52;;;;;;;8.27;5.65;;;;;;;;;;4990664;28;20049;-81
2022/03/02 08:45:19;;;;;;;9.52;5.82;;;;;;;;;;4991893;28;20038;-80
2022/03/02 08:47:45;;;;;;;12.82;5.78;;;;;;;;;;4997848;28;20034;-80
2022/03/02 08:50:11;;;;;;;10.48;6.25;;;;;;;;;;4958292;28;20046;-80
2022/03/02 08:52:36;;;;;;;10.40;5.63;;;;;;;;;;4993012;28;20141;-81
2022/03/02 08:55:04;;;;;;;8.38;5.40;;;;;;;;;;4992622;28;20118;-80
2022/03/02 08:57:31;;;;;;;10.23;5.60;;;;;;;;;;4960672;28;20058;-79
2022/03/02 08:59:57;;;;;;;11.07;5.65;;;;;;;;;;4993097;28;20485;-80
2022/03/02 09:02:24;;;;;;;8.40;5.80;;;;;;;;;;4956696;28;20041;-80
2022/03/02 09:04:49;;;;;;;10.07;7.00;;;;;;;;;;4989546;28;20030;-80
2022/03/02 09:07:15;;;;;;;11.35;6.05;;;;;;;;;;4989591;28;20035;-80
2022/03/02 09:09:40;;;;;;;9.82;5.90;;;;;;;;;;4989429;28;20104;-81
2022/03/02 09:12:08;;;;;;;10.55;5.25;;;;;;;;;;4991533;28;20038;-81
2022/03/02 09:14:33;;;;;;;8.88;5.15;;;;;;;;;;4956471;28;20055;-80
2022/03/02 09:17:00;;;;;;;8.13;5.18;;;;;;;;;;4941025;28;20039;-81
2022/03/02 09:19:25;;;;;;;10.60;5.15;;;;;;;;;;4946496;28;20034;-81
2022/03/02 09:21:51;;;;;;;9.50;5.32;;;;;;;;;;4941261;28;20508;-81
2022/03/02 09:24:16;;;;;;;9.40;5.20;;;;;;;;;;4956689;28;20039;-80
2022/03/02 09:26:42;;;;;;;10.77;5.15;;;;;;;;;;4959398;28;20034;-80
2022/03/02 09:29:07;;;;;;;10.85;5.28;;;;;;;;;;4990971;28;20041;-82
2022/03/02 09:31:34;;;;;;;8.27;5.20;;;;;;;;;;4986563;28;20057;-80
2022/03/02 09:34:01;;;;;;;13.10;6.70;;;;;;;;;;4986751;28;20089;-79
2022/03/02 09:36:26;;;;;;;16.23;7.72;;;;;;;;;;4973317;28;20049;-81
2022/03/02 09:38:52;;;;;;;16.05;6.57;;;;;;;;;;4952896;28;20058;-82
2022/03/02 09:41:29;;;;;;;15.80;7.78;;;;;;;;;;5000167;28;20041;-82
2022/03/02 09:43:57;;;;;;;12.57;6.25;;;;;;;;;;4970733;28;20113;-81
2022/03/02 09:46:36;;;;;;;12.90;7.28;;;;;;;;;;4957510;28;20065;-84
2022/03/02 09:49:06;;;;;;;13.52;8.05;;;;;;;;;;4968485;28;20564;-83
2022/03/02 09:51:32;;;;;;;29.98;9.73;;;;;;;;;;4957390;28;20489;-81
2022/03/02 09:53:58;;;;;;;18.05;9.00;;;;;;;;;;4963679;28;20047;-82
2022/03/02 09:56:24;;;;;;;19.75;9.27;;;;;;;;;;4965392;28;20080;-82
2022/03/02 09:58:50;;;;;;;17.90;10.55;;;;;;;;;;4991435;28;20430;-82
2022/03/02 10:01:15;;;;;;;16.00;9.35;;;;;;;;;;4975003;28;20038;-80
2022/03/02 10:03:45;;;;;;;16.60;10.13;;;;;;;;;;4972921;28;20595;-82
2022/03/02 10:06:11;;;;;;;20.50;11.00;;;;;;;;;;4963496;28;20069;-82
2022/03/02 10:08:39;;;;;;;20.05;9.35;;;;;;;;;;4974658;28;20466;-82
2022/03/02 10:11:06;;;;;;;17.58;10.38;;;;;;;;;;4966953;28;20547;-82
2022/03/02 10:13:31;;;;;;;14.73;8.70;;;;;;;;;;4989414;28;20069;-82
2022/03/02 10:15:57;;;;;;;18.75;9.02;;;;;;;;;;4969448;28;20039;-83
2022/03/02 10:18:22;;;;;;;12.52;8.80;;;;;;;;;;4956062;28;20035;-82
2022/03/02 10:20:49;;;;;;;15.75;8.27;;;;;;;;;;4963149;28;20038;-82
2022/03/02 10:23:35;;;;;;;14.68;8.98;;;;;;;;;;4954863;28;20065;-82
2022/03/02 10:26:08;;;;;;;12.90;8.30;;;;;;;;;;4990701;28;20042;-82
2022/03/02 10:28:39;;;;;;;;;;;;;;;;;;4967437;28;20069;-82
2022/03/02 10:31:16;;;;;;;22.88;9.98;;;;;;;;;;4981775;28;19924;-82
2022/03/02 10:33:46;;;;;;;17.88;10.15;;;;;;;;;;4988849;28;20544;-83
2022/03/02 10:36:12;;;;;;;13.40;9.02;;;;;;;;;;4972438;28;20042;-82
2022/03/02 10:38:59;;;;;;;16.63;8.88;;;;;;;;;;4971196;28;20158;-82
2022/03/02 10:41:27;;;;;;;13.82;8.38;;;;;;;;;;4971729;28;20042;-82
2022/03/02 10:43:58;;;;;;;15.18;9.00;;;;;;;;;;4969641;28;20085;-81
2022/03/02 10:46:24;;;;;;;13.82;9.35;;;;;;;;;;4988328;28;20172;-81
2022/03/02 10:49:01;;;;;;;15.63;9.00;;;;;;;;;;4971155;28;20031;-81
2022/03/02 10:51:26;;;;;;;12.63;8.15;;;;;;;;;;4964563;28;20093;-81
2022/03/02 10:53:52;;;;;;;14.18;8.35;;;;;;;;;;4966794;28;20041;-81
2022/03/02 10:56:18;;;;;;;13.85;8.73;;;;;;;;;;4992438;28;20045;-82
2022/03/02 10:58:44;;;;;;;12.32;8.30;;;;;;;;;;4989391;28;20154;-81
2022/03/02 11:01:11;;;;;;;10.60;8.15;;;;;;;;;;4981531;28;20034;-81
2022/03/02 11:03:37;;;;;;;11.52;8.48;;;;;;;;;;4967974;28;20417;-81
2022/03/02 11:06:04;;;;;;;15.57;8.88;;;;;;;;;;4965023;28;20528;-81
2022/03/02 11:08:29;;;;;;;11.65;7.60;;;;;;;;;;4982649;28;20042;-81
2022/03/02 11:10:55;;;;;;;13.20;7.70;;;;;;;;;;4973882;28;20425;-80
2022/03/02 11:13:22;;;;;;;14.43;8.05;;;;;;;;;;4971149;28;20464;-82
2022/03/02 11:15:52;;;;;;;15.68;8.05;;;;;;;;;;4988597;28;20049;-80
2022/03/02 11:18:19;;;;;;;15.75;7.90;;;;;;;;;;5007367;28;20080;-80
2022/03/02 11:21:00;;;;;;;17.08;7.65;;;;;;;;;;5017691;28;20039;-80
2022/03/02 11:23:26;;;;;;;11.80;6.93;;;;;;;;;;4972875;28;20042;-80
2022/03/02 11:25:53;;;;;;;12.65;7.93;;;;;;;;;;4987977;28;20724;-80
2022/03/02 11:28:20;;;;;;;16.33;10.20;;;;;;;;;;4973942;28;20093;-81
2022/03/02 11:30:56;;;;;;;16.42;12.32;;;;;;;;;;4947097;28;20030;-80
2022/03/02 11:33:25;;;;;;;16.05;11.77;;;;;;;;;;4983204;28;20121;-81
2022/03/02 11:35:52;;;;;;;18.52;11.68;;;;;;;;;;4975107;28;20049;-81
2022/03/02 11:38:19;;;;;;;14.13;10.73;;;;;;;;;;4927291;28;20031;-81
2022/03/02 11:40:47;;;;;;;17.15;10.98;;;;;;;;;;4929231;28;20121;-80
2022/03/02 11:43:21;;;;;;;15.90;11.30;;;;;;;;;;4965266;28;20031;-80
2022/03/02 11:45:47;;;;;;;15.98;10.68;;;;;;;;;;4990491;28;20061;-80
2022/03/02 11:48:14;;;;;;;16.95;9.88;;;;;;;;;;4958804;28;20489;-80
2022/03/02 11:51:04;;;;;;;14.50;10.32;;;;;;;;;;4958861;28;20035;-80
2022/03/02 11:53:37;;;;;;;14.68;8.73;;;;;;;;;;4943169;28;20425;-79
2022/03/02 11:56:03;;;;;;;18.10;9.90;;;;;;;;;;4974229;28;20034;-80
2022/03/02 11:59:00;;;;;;;15.23;9.48;;;;;;;;;;4977272;28;20031;-80
2022/03/02 12:01:27;;;;;;;14.45;10.10;;;;;;;;;;4977540;28;20038;-79
2022/03/02 12:03:59;;;;;;;14.25;9.30;;;;;;;;;;4977205;28;20045;-80
2022/03/02 12:06:26;;;;;;;10.65;7.78;;;;;;;;;;4994012;28;20450;-79
2022/03/02 12:08:52;;;;;;;13.93;8.35;;;;;;;;;;4973707;28;20515;-79
2022/03/02 12:11:40;;;;;;;13.70;9.02;;;;;;;;;;4968878;28;20038;-79
2022/03/02 12:14:10;;;;;;;13.52;7.82;;;;;;;;;;4957593;28;20043;-79
2022/03/02 12:16:39;;;;;;;11.82;7.82;;;;;;;;;;4973556;28;20046;-80
2022/03/02 12:19:05;;;;;;;13.85;7.70;;;;;;;;;;4975152;28;20034;-79
2022/03/02 12:21:31;;;;;;;12.27;7.50;;;;;;;;;;4965049;28;20038;-79
2022/03/02 12:23:59;;;;;;;8.40;7.07;;;;;;;;;;4991183;28;20471;-79
2022/03/02 12:26:24;;;;;;;10.18;7.40;;;;;;;;;;4973956;28;20417;-79
2022/03/02 12:28:55;;;;;;;11.23;7.10;;;;;;;;;;4958523;28;20041;-79
2022/03/02 12:31:31;;;;;;;13.43;7.00;;;;;;;;;;4976868;28;20048;-79
2022/03/02 12:34:21;;;;;;;8.55;6.10;;;;;;;;;;4969034;28;20465;-79
2022/03/02 12:36:46;;;;;;;24.92;16.20;;;;;;;;;;5006653;28;20054;-79
2022/03/02 12:39:12;;;;;;;16.67;12.50;;;;;;;;;;4984802;28;20034;-79
2022/03/02 12:41:37;;;;;;;15.45;12.30;;;;;;;;;;4966617;28;20047;-79
2022/03/02 12:44:03;;;;;;;44.70;28.38;;;;;;;;;;4973839;28;20034;-79
2022/03/02 12:46:29;;;;;;;40.63;25.27;;;;;;;;;;4975869;28;20129;-80
2022/03/02 12:48:55;;;;;;;35.63;22.58;;;;;;;;;;4992181;28;20038;-79
2022/03/02 12:51:21;;;;;;;31.60;22.63;;;;;;;;;;4959751;28;20039;-79
2022/03/02 12:53:47;;;;;;;34.00;21.98;;;;;;;;;;4940209;28;20121;-80
2022/03/02 12:56:13;;;;;;;30.48;20.85;;;;;;;;;;4973697;28;20039;-79
2022/03/02 12:58:39;;;;;;;29.30;19.23;;;;;;;;;;4992423;28;20114;-80
2022/03/02 13:01:05;;;;;;;28.23;18.20;;;;;;;;;;4992836;28;20505;-79
2022/03/02 13:03:31;;;;;;;27.75;18.77;;;;;;;;;;4976563;28;20485;-80
2022/03/02 13:06:00;;;;;;;25.88;17.60;;;;;;;;;;4971719;28;20121;-80
2022/03/02 13:08:52;;;;;;;23.77;17.48;;;;;;;;;;4955523;28;20747;-79
2022/03/02 13:11:23;;;;;;;25.02;17.13;;;;;;;;;;4941325;28;20509;-79
2022/03/02 13:13:48;;;;;;;22.00;16.38;;;;;;;;;;4972581;28;20552;-79
2022/03/02 13:16:19;;;;;;;21.60;16.00;;;;;;;;;;4983068;28;20042;-79
2022/03/02 13:18:56;;;;;;;22.13;15.45;;;;;;;;;;4979525;28;20034;-79
2022/03/02 13:21:32;;;;;;;23.75;14.75;;;;;;;;;;4954383;28;20117;-79
2022/03/02 13:24:10;;;;;;;21.10;14.20;;;;;;;;;;4956835;28;20042;-80
2022/03/02 13:26:36;;;;;;;20.98;14.38;;;;;;;;;;4974017;28;20501;-79
2022/03/02 13:29:05;;;;;;;22.90;14.05;;;;;;;;;;4924255;28;20031;-79
2022/03/02 13:31:49;;;;;;;24.60;14.20;;;;;;;;;;4974078;28;20065;-79
2022/03/02 13:34:16;;;;;;;18.73;13.70;;;;;;;;;;4959058;28;20408;-79
2022/03/02 13:36:51;;;;;;;17.15;12.35;;;;;;;;;;4940597;28;20038;-80
2022/03/02 13:39:44;;;;;;;16.55;12.27;;;;;;;;;;4954625;28;20030;-79
2022/03/02 13:42:24;;;;;;;18.13;12.73;;;;;;;;;;4971714;28;20485;-80
2022/03/02 13:44:49;;;;;;;17.48;11.90;;;;;;;;;;4956709;28;20043;-80
2022/03/02 13:47:16;;;;;;;16.67;11.68;;;;;;;;;;4972580;28;20046;-80
2022/03/02 13:49:45;;;;;;;15.80;11.57;;;;;;;;;;4973118;28;20050;-79
2022/03/02 13:52:10;;;;;;;14.02;9.82;;;;;;;;;;4972275;28;20502;-80
2022/03/02 13:54:36;;;;;;;14.32;10.90;;;;;;;;;;4956562;28;20073;-79
2022/03/02 13:57:02;;;;;;;16.38;11.00;;;;;;;;;;4979316;28;20050;-80
2022/03/02 13:59:27;;;;;;;15.25;9.82;;;;;;;;;;4991111;28;20030;-80
2022/03/02 14:01:53;;;;;;;13.75;9.77;;;;;;;;;;4975408;28;20519;-79
2022/03/02 14:04:18;;;;;;;12.02;9.07;;;;;;;;;;4974624;28;20038;-80
2022/03/02 14:06:45;;;;;;;14.18;10.07;;;;;;;;;;4962308;28;20053;-80
2022/03/02 14:09:12;;;;;;;13.95;9.93;;;;;;;;;;4956219;28;20027;-80
2022/03/02 14:11:43;;;;;;;12.35;8.63;;;;;;;;;;4940117;28;20042;-80
2022/03/02 14:14:15;;;;;;;14.30;8.95;;;;;;;;;;4972003;28;20043;-80
2022/03/02 14:17:10;;;;;;;12.87;8.40;;;;;;;;;;4955851;28;20421;-80
2022/03/02 14:19:39;;;;;;;13.38;8.82;;;;;;;;;;4954992;28;20097;-80
2022/03/02 14:22:07;;;;;;;13.23;8.73;;;;;;;;;;4968409;28;20092;-79
2022/03/02 14:24:33;;;;;;;12.82;7.93;;;;;;;;;;4958880;28;20546;-80
2022/03/02 14:27:07;;;;;;;12.80;8.80;;;;;;;;;;4973827;28;20037;-80
2022/03/02 14:29:34;;;;;;;12.25;8.10;;;;;;;;;;4990385;28;20089;-80
2022/03/02 14:32:05;;;;;;;10.93;7.45;;;;;;;;;;4970169;28;20053;-81
2022/03/02 14:35:09;;;;;;;12.07;7.07;;;;;;;;;;4943031;28;20117;-80
2022/03/02 14:37:40;;;;;;;13.13;7.35;;;;;;;;;;4989572;28;20035;-80
2022/03/02 14:40:12;;;;;;;13.10;7.07;;;;;;;;;;4973949;28;20480;-81